sensor_id;sensor_type;location;lat;lon;timestamp;P1;durP1;ratioP1;P2;durP2;ratioP2
9834;SDS011;4956;50.996;13.716;2022-12-18T00:02:53;26.50;;;13.05;;
9834;SDS011;4956;50.996;13.716;2022-12-18T00:06:13;26.90;;;13.43;;
9834;SDS011;4956;50.996;13.716;2022-12-18T00:09:34;28.27;;;13.57;;
9834;SDS011;4956;50.996;13.716;2022-12-18T00:12:55;32.08;;;14.38;;
9834;SDS011;4956;50.996;13.716;2022-12-18T00:16:16;29.05;;;14.23;;
9834;SDS011;4956;50.996;13.716;2022-12-18T00:19:40;27.88;;;13.77;;
9834;SDS011;4956;50.996;13.716;2022-12-18T00:23:00;28.67;;;13.55;;
9834;SDS011;4956;50.996;13.716;2022-12-18T00:26:25;25.52;;;13.02;;
9834;SDS011;4956;50.996;13.716;2022-12-18T00:29:50;25.35;;;12.40;;
9834;SDS011;4956;50.996;13.716;2022-12-18T00:33:11;24.77;;;12.07;;
9834;SDS011;4956;50.996;13.716;2022-12-18T00:36:32;24.10;;;11.88;;
9834;SDS011;4956;50.996;13.716;2022-12-18T00:39:54;23.58;;;11.65;;
9834;SDS011;4956;50.996;13.716;2022-12-18T00:43:14;23.92;;;11.70;;
9834;SDS011;4956;50.996;13.716;2022-12-18T00:46:34;24.88;;;12.02;;
9834;SDS011;4956;50.996;13.716;2022-12-18T00:49:55;24.08;;;12.55;;
9834;SDS011;4956;50.996;13.716;2022-12-18T00:53:15;26.73;;;12.57;;
9834;SDS011;4956;50.996;13.716;2022-12-18T00:56:37;28.48;;;13.65;;
9834;SDS011;4956;50.996;13.716;2022-12-18T00:59:58;27.67;;;13.52;;
9834;SDS011;4956;50.996;13.716;2022-12-18T01:03:18;31.15;;;14.57;;
9834;SDS011;4956;50.996;13.716;2022-12-18T01:06:39;29.50;;;14.32;;
9834;SDS011;4956;50.996;13.716;2022-12-18T01:10:00;26.95;;;13.35;;
9834;SDS011;4956;50.996;13.716;2022-12-18T01:13:21;28.55;;;13.93;;
9834;SDS011;4956;50.996;13.716;2022-12-18T01:16:43;31.90;;;14.38;;
9834;SDS011;4956;50.996;13.716;2022-12-18T01:20:04;30.65;;;14.23;;
9834;SDS011;4956;50.996;13.716;2022-12-18T01:23:26;27.02;;;14.20;;
9834;SDS011;4956;50.996;13.716;2022-12-18T01:26:49;28.73;;;13.90;;
9834;SDS011;4956;50.996;13.716;2022-12-18T01:30:09;30.77;;;13.75;;
9834;SDS011;4956;50.996;13.716;2022-12-18T01:33:30;31.40;;;14.43;;
9834;SDS011;4956;50.996;13.716;2022-12-18T01:36:53;29.83;;;14.50;;
9834;SDS011;4956;50.996;13.716;2022-12-18T01:40:13;32.65;;;14.65;;
9834;SDS011;4956;50.996;13.716;2022-12-18T01:43:44;27.55;;;13.55;;
9834;SDS011;4956;50.996;13.716;2022-12-18T01:47:14;27.60;;;13.50;;
9834;SDS011;4956;50.996;13.716;2022-12-18T01:50:37;27.58;;;13.70;;
9834;SDS011;4956;50.996;13.716;2022-12-18T01:54:00;29.33;;;14.15;;
9834;SDS011;4956;50.996;13.716;2022-12-18T01:57:20;26.63;;;13.35;;
9834;SDS011;4956;50.996;13.716;2022-12-18T02:00:41;24.95;;;12.95;;
9834;SDS011;4956;50.996;13.716;2022-12-18T02:15:27;23.45;;;10.63;;
9834;SDS011;4956;50.996;13.716;2022-12-18T02:18:56;18.83;;;9.15;;
9834;SDS011;4956;50.996;13.716;2022-12-18T02:29:59;20.08;;;8.65;;
9834;SDS011;4956;50.996;13.716;2022-12-18T02:33:22;17.38;;;9.00;;
9834;SDS011;4956;50.996;13.716;2022-12-18T02:36:44;17.05;;;8.98;;
9834;SDS011;4956;50.996;13.716;2022-12-18T02:40:07;18.73;;;9.15;;
9834;SDS011;4956;50.996;13.716;2022-12-18T02:43:30;18.33;;;9.23;;
9834;SDS011;4956;50.996;13.716;2022-12-18T02:46:52;18.52;;;9.88;;
9834;SDS011;4956;50.996;13.716;2022-12-18T02:50:18;22.25;;;10.30;;
9834;SDS011;4956;50.996;13.716;2022-12-18T02:53:51;18.98;;;9.35;;
9834;SDS011;4956;50.996;13.716;2022-12-18T03:04:39;19.90;;;9.50;;
9834;SDS011;4956;50.996;13.716;2022-12-18T03:08:14;18.98;;;9.20;;
9834;SDS011;4956;50.996;13.716;2022-12-18T03:11:40;20.58;;;10.30;;
9834;SDS011;4956;50.996;13.716;2022-12-18T03:15:22;21.10;;;10.57;;
9834;SDS011;4956;50.996;13.716;2022-12-18T03:18:53;20.42;;;9.82;;
9834;SDS011;4956;50.996;13.716;2022-12-18T03:22:15;19.75;;;9.40;;
9834;SDS011;4956;50.996;13.716;2022-12-18T03:25:42;20.42;;;9.55;;
9834;SDS011;4956;50.996;13.716;2022-12-18T03:29:06;16.60;;;9.02;;
9834;SDS011;4956;50.996;13.716;2022-12-18T03:32:31;19.55;;;8.88;;
9834;SDS011;4956;50.996;13.716;2022-12-18T03:36:00;18.05;;;8.95;;
9834;SDS011;4956;50.996;13.716;2022-12-18T03:39:21;18.83;;;8.88;;
9834;SDS011;4956;50.996;13.716;2022-12-18T03:42:49;17.08;;;8.52;;
9834;SDS011;4956;50.996;13.716;2022-12-18T03:50:34;17.48;;;8.35;;
9834;SDS011;4956;50.996;13.716;2022-12-18T03:56:58;19.20;;;8.93;;
9834;SDS011;4956;50.996;13.716;2022-12-18T04:00:22;16.27;;;7.82;;
9834;SDS011;4956;50.996;13.716;2022-12-18T04:03:48;15.77;;;7.35;;
9834;SDS011;4956;50.996;13.716;2022-12-18T04:07:11;15.05;;;7.70;;
9834;SDS011;4956;50.996;13.716;2022-12-18T04:10:32;15.82;;;7.95;;
9834;SDS011;4956;50.996;13.716;2022-12-18T04:13:55;15.23;;;7.60;;
9834;SDS011;4956;50.996;13.716;2022-12-18T04:17:17;13.52;;;6.88;;
9834;SDS011;4956;50.996;13.716;2022-12-18T04:20:38;15.80;;;7.75;;
9834;SDS011;4956;50.996;13.716;2022-12-18T04:23:59;14.88;;;6.65;;
9834;SDS011;4956;50.996;13.716;2022-12-18T04:27:19;13.30;;;6.88;;
9834;SDS011;4956;50.996;13.716;2022-12-18T04:30:42;16.38;;;8.10;;
9834;SDS011;4956;50.996;13.716;2022-12-18T04:34:03;17.90;;;8.40;;
9834;SDS011;4956;50.996;13.716;2022-12-18T04:37:29;15.10;;;7.10;;
9834;SDS011;4956;50.996;13.716;2022-12-18T04:40:50;15.05;;;7.47;;
9834;SDS011;4956;50.996;13.716;2022-12-18T04:44:18;13.50;;;6.90;;
9834;SDS011;4956;50.996;13.716;2022-12-18T04:47:38;14.05;;;6.82;;
9834;SDS011;4956;50.996;13.716;2022-12-18T04:50:58;11.77;;;5.95;;
9834;SDS011;4956;50.996;13.716;2022-12-18T04:54:19;13.75;;;6.18;;
9834;SDS011;4956;50.996;13.716;2022-12-18T04:57:39;11.93;;;5.80;;
9834;SDS011;4956;50.996;13.716;2022-12-18T05:01:00;12.50;;;5.95;;
9834;SDS011;4956;50.996;13.716;2022-12-18T05:04:20;10.80;;;5.35;;
9834;SDS011;4956;50.996;13.716;2022-12-18T05:07:41;13.32;;;6.07;;
9834;SDS011;4956;50.996;13.716;2022-12-18T05:11:02;11.75;;;5.60;;
9834;SDS011;4956;50.996;13.716;2022-12-18T05:14:24;11.55;;;5.53;;
9834;SDS011;4956;50.996;13.716;2022-12-18T05:17:44;10.90;;;5.78;;
9834;SDS011;4956;50.996;13.716;2022-12-18T05:21:05;12.57;;;5.90;;
9834;SDS011;4956;50.996;13.716;2022-12-18T05:24:25;10.98;;;5.90;;
9834;SDS011;4956;50.996;13.716;2022-12-18T05:27:46;13.85;;;6.07;;
9834;SDS011;4956;50.996;13.716;2022-12-18T05:31:07;12.32;;;5.75;;
9834;SDS011;4956;50.996;13.716;2022-12-18T05:34:27;12.63;;;5.88;;
9834;SDS011;4956;50.996;13.716;2022-12-18T05:37:47;11.88;;;5.88;;
9834;SDS011;4956;50.996;13.716;2022-12-18T05:41:08;11.88;;;6.50;;
9834;SDS011;4956;50.996;13.716;2022-12-18T05:44:28;11.93;;;6.22;;
9834;SDS011;4956;50.996;13.716;2022-12-18T05:47:49;11.25;;;6.63;;
9834;SDS011;4956;50.996;13.716;2022-12-18T05:51:10;12.32;;;6.38;;
9834;SDS011;4956;50.996;13.716;2022-12-18T05:54:32;10.63;;;5.55;;
9834;SDS011;4956;50.996;13.716;2022-12-18T05:57:52;11.40;;;6.57;;
9834;SDS011;4956;50.996;13.716;2022-12-18T06:01:15;15.88;;;7.45;;
9834;SDS011;4956;50.996;13.716;2022-12-18T06:04:39;15.18;;;7.43;;
9834;SDS011;4956;50.996;13.716;2022-12-18T06:08:00;17.15;;;8.20;;
9834;SDS011;4956;50.996;13.716;2022-12-18T06:11:24;19.75;;;9.23;;
9834;SDS011;4956;50.996;13.716;2022-12-18T06:14:45;14.40;;;7.97;;
9834;SDS011;4956;50.996;13.716;2022-12-18T06:18:06;13.93;;;7.53;;
9834;SDS011;4956;50.996;13.716;2022-12-18T06:21:26;16.00;;;8.00;;
9834;SDS011;4956;50.996;13.716;2022-12-18T06:24:47;17.08;;;8.23;;
9834;SDS011;4956;50.996;13.716;2022-12-18T06:28:07;16.48;;;8.23;;
9834;SDS011;4956;50.996;13.716;2022-12-18T06:31:28;14.18;;;7.88;;
9834;SDS011;4956;50.996;13.716;2022-12-18T06:34:48;16.45;;;8.48;;
9834;SDS011;4956;50.996;13.716;2022-12-18T06:38:08;17.35;;;8.57;;
9834;SDS011;4956;50.996;13.716;2022-12-18T06:41:29;16.38;;;8.15;;
9834;SDS011;4956;50.996;13.716;2022-12-18T06:44:49;15.82;;;7.60;;
9834;SDS011;4956;50.996;13.716;2022-12-18T06:48:10;15.02;;;7.40;;
9834;SDS011;4956;50.996;13.716;2022-12-18T06:51:30;17.08;;;7.63;;
9834;SDS011;4956;50.996;13.716;2022-12-18T06:54:51;13.25;;;7.50;;
9834;SDS011;4956;50.996;13.716;2022-12-18T06:58:11;16.25;;;7.28;;
9834;SDS011;4956;50.996;13.716;2022-12-18T07:01:32;15.18;;;7.03;;
9834;SDS011;4956;50.996;13.716;2022-12-18T07:04:52;14.57;;;6.88;;
9834;SDS011;4956;50.996;13.716;2022-12-18T07:08:12;17.00;;;8.40;;
9834;SDS011;4956;50.996;13.716;2022-12-18T07:11:33;14.73;;;7.43;;
9834;SDS011;4956;50.996;13.716;2022-12-18T07:14:53;15.77;;;7.10;;
9834;SDS011;4956;50.996;13.716;2022-12-18T07:18:14;13.45;;;6.88;;
9834;SDS011;4956;50.996;13.716;2022-12-18T07:21:34;13.57;;;7.15;;
9834;SDS011;4956;50.996;13.716;2022-12-18T07:24:54;17.23;;;7.60;;
9834;SDS011;4956;50.996;13.716;2022-12-18T07:28:15;14.90;;;7.72;;
9834;SDS011;4956;50.996;13.716;2022-12-18T07:31:35;15.13;;;8.38;;
9834;SDS011;4956;50.996;13.716;2022-12-18T07:34:56;15.98;;;7.75;;
9834;SDS011;4956;50.996;13.716;2022-12-18T07:38:16;16.60;;;8.45;;
9834;SDS011;4956;50.996;13.716;2022-12-18T07:41:36;18.02;;;8.52;;
9834;SDS011;4956;50.996;13.716;2022-12-18T07:45:02;17.30;;;8.23;;
9834;SDS011;4956;50.996;13.716;2022-12-18T07:48:23;17.13;;;8.50;;
9834;SDS011;4956;50.996;13.716;2022-12-18T07:51:44;19.80;;;8.35;;
9834;SDS011;4956;50.996;13.716;2022-12-18T07:55:09;16.48;;;8.52;;
9834;SDS011;4956;50.996;13.716;2022-12-18T07:58:29;17.40;;;8.25;;
9834;SDS011;4956;50.996;13.716;2022-12-18T08:01:49;18.90;;;9.80;;
9834;SDS011;4956;50.996;13.716;2022-12-18T08:05:10;19.27;;;9.50;;
9834;SDS011;4956;50.996;13.716;2022-12-18T08:08:30;17.63;;;9.18;;
9834;SDS011;4956;50.996;13.716;2022-12-18T08:11:51;19.73;;;9.75;;
9834;SDS011;4956;50.996;13.716;2022-12-18T08:15:11;22.60;;;10.73;;
9834;SDS011;4956;50.996;13.716;2022-12-18T08:18:33;21.95;;;11.02;;
9834;SDS011;4956;50.996;13.716;2022-12-18T08:21:54;20.75;;;10.68;;
9834;SDS011;4956;50.996;13.716;2022-12-18T08:25:15;22.00;;;11.07;;
9834;SDS011;4956;50.996;13.716;2022-12-18T08:35:49;20.13;;;10.38;;
9834;SDS011;4956;50.996;13.716;2022-12-18T08:39:09;21.95;;;10.68;;
9834;SDS011;4956;50.996;13.716;2022-12-18T08:42:31;20.40;;;10.60;;
9834;SDS011;4956;50.996;13.716;2022-12-18T08:46:11;19.70;;;10.00;;
9834;SDS011;4956;50.996;13.716;2022-12-18T08:49:32;21.52;;;11.02;;
9834;SDS011;4956;50.996;13.716;2022-12-18T08:52:52;23.33;;;11.30;;
9834;SDS011;4956;50.996;13.716;2022-12-18T08:56:13;22.17;;;11.00;;
9834;SDS011;4956;50.996;13.716;2022-12-18T08:59:34;22.80;;;11.25;;
9834;SDS011;4956;50.996;13.716;2022-12-18T09:02:54;20.00;;;11.00;;
9834;SDS011;4956;50.996;13.716;2022-12-18T09:06:15;27.75;;;12.88;;
9834;SDS011;4956;50.996;13.716;2022-12-18T09:09:37;20.98;;;10.75;;
9834;SDS011;4956;50.996;13.716;2022-12-18T09:12:57;21.45;;;10.93;;
9834;SDS011;4956;50.996;13.716;2022-12-18T09:16:18;27.10;;;14.70;;
9834;SDS011;4956;50.996;13.716;2022-12-18T09:19:39;30.35;;;15.32;;
9834;SDS011;4956;50.996;13.716;2022-12-18T09:23:00;28.98;;;15.70;;
9834;SDS011;4956;50.996;13.716;2022-12-18T09:26:21;30.42;;;14.73;;
9834;SDS011;4956;50.996;13.716;2022-12-18T09:29:42;30.30;;;15.50;;
9834;SDS011;4956;50.996;13.716;2022-12-18T09:33:02;28.40;;;14.45;;
9834;SDS011;4956;50.996;13.716;2022-12-18T09:36:23;31.63;;;15.27;;
9834;SDS011;4956;50.996;13.716;2022-12-18T09:39:43;28.90;;;14.05;;
9834;SDS011;4956;50.996;13.716;2022-12-18T09:43:04;39.17;;;20.27;;
9834;SDS011;4956;50.996;13.716;2022-12-18T09:46:26;31.88;;;17.33;;
9834;SDS011;4956;50.996;13.716;2022-12-18T09:49:50;35.47;;;19.30;;
9834;SDS011;4956;50.996;13.716;2022-12-18T09:53:16;26.30;;;14.70;;
9834;SDS011;4956;50.996;13.716;2022-12-18T09:56:41;28.50;;;14.55;;
9834;SDS011;4956;50.996;13.716;2022-12-18T10:00:15;26.65;;;14.15;;
9834;SDS011;4956;50.996;13.716;2022-12-18T10:03:38;27.75;;;13.25;;
9834;SDS011;4956;50.996;13.716;2022-12-18T10:07:01;31.70;;;15.55;;
9834;SDS011;4956;50.996;13.716;2022-12-18T10:10:42;30.73;;;15.52;;
9834;SDS011;4956;50.996;13.716;2022-12-18T10:14:36;31.27;;;15.15;;
9834;SDS011;4956;50.996;13.716;2022-12-18T10:25:05;31.00;;;14.90;;
9834;SDS011;4956;50.996;13.716;2022-12-18T10:28:37;34.30;;;16.65;;
9834;SDS011;4956;50.996;13.716;2022-12-18T10:31:59;30.52;;;15.80;;
9834;SDS011;4956;50.996;13.716;2022-12-18T10:35:20;39.83;;;17.65;;
9834;SDS011;4956;50.996;13.716;2022-12-18T10:38:45;36.38;;;17.40;;
9834;SDS011;4956;50.996;13.716;2022-12-18T10:42:18;35.47;;;16.80;;
9834;SDS011;4956;50.996;13.716;2022-12-18T10:45:39;35.97;;;16.80;;
9834;SDS011;4956;50.996;13.716;2022-12-18T10:49:00;33.10;;;16.67;;
9834;SDS011;4956;50.996;13.716;2022-12-18T10:52:21;34.05;;;16.17;;
9834;SDS011;4956;50.996;13.716;2022-12-18T10:55:44;30.80;;;14.75;;
9834;SDS011;4956;50.996;13.716;2022-12-18T10:59:06;31.13;;;15.18;;
9834;SDS011;4956;50.996;13.716;2022-12-18T11:02:33;33.42;;;15.43;;
9834;SDS011;4956;50.996;13.716;2022-12-18T11:06:02;32.63;;;15.40;;
9834;SDS011;4956;50.996;13.716;2022-12-18T11:09:27;33.83;;;16.35;;
9834;SDS011;4956;50.996;13.716;2022-12-18T11:12:49;30.92;;;15.88;;
9834;SDS011;4956;50.996;13.716;2022-12-18T11:16:17;37.42;;;16.35;;
9834;SDS011;4956;50.996;13.716;2022-12-18T11:19:39;36.78;;;17.33;;
9834;SDS011;4956;50.996;13.716;2022-12-18T11:23:00;37.90;;;17.98;;
9834;SDS011;4956;50.996;13.716;2022-12-18T11:26:22;38.22;;;18.52;;
9834;SDS011;4956;50.996;13.716;2022-12-18T11:30:06;45.67;;;18.88;;
9834;SDS011;4956;50.996;13.716;2022-12-18T11:33:29;44.13;;;18.48;;
9834;SDS011;4956;50.996;13.716;2022-12-18T11:36:50;40.15;;;18.67;;
9834;SDS011;4956;50.996;13.716;2022-12-18T11:40:13;45.13;;;20.25;;
9834;SDS011;4956;50.996;13.716;2022-12-18T11:43:38;42.47;;;19.63;;
9834;SDS011;4956;50.996;13.716;2022-12-18T11:47:21;42.88;;;19.85;;
9834;SDS011;4956;50.996;13.716;2022-12-18T11:54:14;38.65;;;18.58;;
9834;SDS011;4956;50.996;13.716;2022-12-18T11:57:51;42.50;;;19.33;;
9834;SDS011;4956;50.996;13.716;2022-12-18T12:01:39;40.97;;;18.73;;
9834;SDS011;4956;50.996;13.716;2022-12-18T12:08:48;43.63;;;18.85;;
9834;SDS011;4956;50.996;13.716;2022-12-18T12:12:37;38.47;;;18.50;;
9834;SDS011;4956;50.996;13.716;2022-12-18T12:16:17;40.85;;;17.88;;
9834;SDS011;4956;50.996;13.716;2022-12-18T12:19:49;40.10;;;17.67;;
9834;SDS011;4956;50.996;13.716;2022-12-18T12:23:15;42.15;;;17.30;;
9834;SDS011;4956;50.996;13.716;2022-12-18T12:27:02;41.33;;;17.70;;
9834;SDS011;4956;50.996;13.716;2022-12-18T12:30:38;34.25;;;16.75;;
9834;SDS011;4956;50.996;13.716;2022-12-18T12:34:15;39.17;;;17.13;;
9834;SDS011;4956;50.996;13.716;2022-12-18T12:41:31;37.97;;;17.20;;
9834;SDS011;4956;50.996;13.716;2022-12-18T12:45:15;39.08;;;16.92;;
9834;SDS011;4956;50.996;13.716;2022-12-18T12:48:40;36.45;;;16.38;;
9834;SDS011;4956;50.996;13.716;2022-12-18T12:52:07;40.63;;;17.08;;
9834;SDS011;4956;50.996;13.716;2022-12-18T12:55:31;40.17;;;17.80;;
9834;SDS011;4956;50.996;13.716;2022-12-18T13:02:22;39.22;;;17.05;;
9834;SDS011;4956;50.996;13.716;2022-12-18T13:05:51;34.58;;;16.27;;
9834;SDS011;4956;50.996;13.716;2022-12-18T13:09:14;37.38;;;17.20;;
9834;SDS011;4956;50.996;13.716;2022-12-18T13:12:34;38.03;;;16.90;;
9834;SDS011;4956;50.996;13.716;2022-12-18T13:16:13;40.20;;;16.85;;
9834;SDS011;4956;50.996;13.716;2022-12-18T13:19:38;40.17;;;17.52;;
9834;SDS011;4956;50.996;13.716;2022-12-18T13:22:59;35.17;;;15.75;;
9834;SDS011;4956;50.996;13.716;2022-12-18T13:29:44;35.60;;;16.73;;
9834;SDS011;4956;50.996;13.716;2022-12-18T13:33:34;35.53;;;16.67;;
9834;SDS011;4956;50.996;13.716;2022-12-18T13:36:47;37.10;;;19.05;;
9834;SDS011;4956;50.996;13.716;2022-12-18T13:40:35;43.85;;;17.02;;
9834;SDS011;4956;50.996;13.716;2022-12-18T13:44:10;37.08;;;18.20;;
9834;SDS011;4956;50.996;13.716;2022-12-18T13:47:36;38.55;;;17.00;;
9834;SDS011;4956;50.996;13.716;2022-12-18T13:51:05;37.10;;;16.63;;
9834;SDS011;4956;50.996;13.716;2022-12-18T13:54:34;38.28;;;17.25;;
9834;SDS011;4956;50.996;13.716;2022-12-18T13:58:05;39.08;;;16.55;;
9834;SDS011;4956;50.996;13.716;2022-12-18T14:01:26;37.90;;;16.30;;
9834;SDS011;4956;50.996;13.716;2022-12-18T14:04:46;34.42;;;15.45;;
9834;SDS011;4956;50.996;13.716;2022-12-18T14:08:08;34.42;;;15.45;;
9834;SDS011;4956;50.996;13.716;2022-12-18T14:11:30;36.20;;;16.00;;
9834;SDS011;4956;50.996;13.716;2022-12-18T14:14:51;36.17;;;14.73;;
9834;SDS011;4956;50.996;13.716;2022-12-18T14:21:35;31.67;;;14.45;;
9834;SDS011;4956;50.996;13.716;2022-12-18T14:28:32;33.13;;;15.38;;
9834;SDS011;4956;50.996;13.716;2022-12-18T14:32:12;33.30;;;15.15;;
9834;SDS011;4956;50.996;13.716;2022-12-18T14:35:58;32.60;;;13.68;;
9834;SDS011;4956;50.996;13.716;2022-12-18T14:39:18;28.45;;;13.40;;
9834;SDS011;4956;50.996;13.716;2022-12-18T14:42:38;32.33;;;13.98;;
9834;SDS011;4956;50.996;13.716;2022-12-18T14:45:59;33.58;;;15.15;;
9834;SDS011;4956;50.996;13.716;2022-12-18T14:52:52;33.33;;;14.88;;
9834;SDS011;4956;50.996;13.716;2022-12-18T14:56:22;32.92;;;14.30;;
9834;SDS011;4956;50.996;13.716;2022-12-18T14:59:45;30.08;;;13.43;;
9834;SDS011;4956;50.996;13.716;2022-12-18T15:03:05;34.53;;;14.70;;
9834;SDS011;4956;50.996;13.716;2022-12-18T15:06:35;29.27;;;13.25;;
9834;SDS011;4956;50.996;13.716;2022-12-18T15:10:13;30.38;;;13.57;;
9834;SDS011;4956;50.996;13.716;2022-12-18T15:13:44;29.50;;;13.20;;
9834;SDS011;4956;50.996;13.716;2022-12-18T15:17:05;30.25;;;13.07;;
9834;SDS011;4956;50.996;13.716;2022-12-18T15:20:41;29.85;;;13.57;;
9834;SDS011;4956;50.996;13.716;2022-12-18T15:24:03;30.45;;;13.40;;
9834;SDS011;4956;50.996;13.716;2022-12-18T15:27:25;28.83;;;12.95;;
9834;SDS011;4956;50.996;13.716;2022-12-18T15:31:00;28.85;;;14.02;;
9834;SDS011;4956;50.996;13.716;2022-12-18T15:34:40;33.00;;;14.60;;
9834;SDS011;4956;50.996;13.716;2022-12-18T15:38:00;34.10;;;14.82;;
9834;SDS011;4956;50.996;13.716;2022-12-18T15:41:21;33.17;;;14.60;;
9834;SDS011;4956;50.996;13.716;2022-12-18T15:44:42;36.95;;;14.70;;
9834;SDS011;4956;50.996;13.716;2022-12-18T15:48:24;36.47;;;14.95;;
9834;SDS011;4956;50.996;13.716;2022-12-18T15:51:44;32.58;;;14.90;;
9834;SDS011;4956;50.996;13.716;2022-12-18T15:55:05;31.77;;;14.05;;
9834;SDS011;4956;50.996;13.716;2022-12-18T15:58:48;34.00;;;14.68;;
9834;SDS011;4956;50.996;13.716;2022-12-18T16:02:11;34.88;;;14.90;;
9834;SDS011;4956;50.996;13.716;2022-12-18T16:05:36;32.40;;;14.57;;
9834;SDS011;4956;50.996;13.716;2022-12-18T16:08:56;34.38;;;15.60;;
9834;SDS011;4956;50.996;13.716;2022-12-18T16:12:18;34.80;;;14.60;;
9834;SDS011;4956;50.996;13.716;2022-12-18T16:15:41;40.05;;;15.35;;
9834;SDS011;4956;50.996;13.716;2022-12-18T16:19:01;35.88;;;15.65;;
9834;SDS011;4956;50.996;13.716;2022-12-18T16:22:23;32.08;;;15.00;;
9834;SDS011;4956;50.996;13.716;2022-12-18T16:25:45;34.55;;;14.82;;
9834;SDS011;4956;50.996;13.716;2022-12-18T16:29:05;35.67;;;14.15;;
9834;SDS011;4956;50.996;13.716;2022-12-18T16:32:25;32.35;;;14.23;;
9834;SDS011;4956;50.996;13.716;2022-12-18T16:35:50;82.80;;;38.42;;
9834;SDS011;4956;50.996;13.716;2022-12-18T16:39:11;33.63;;;15.43;;
9834;SDS011;4956;50.996;13.716;2022-12-18T16:42:32;30.42;;;14.13;;
9834;SDS011;4956;50.996;13.716;2022-12-18T16:45:52;33.22;;;13.93;;
9834;SDS011;4956;50.996;13.716;2022-12-18T16:49:17;33.28;;;14.43;;
9834;SDS011;4956;50.996;13.716;2022-12-18T16:52:38;29.70;;;13.90;;
9834;SDS011;4956;50.996;13.716;2022-12-18T16:55:58;32.33;;;14.20;;
9834;SDS011;4956;50.996;13.716;2022-12-18T16:59:19;30.83;;;14.60;;
9834;SDS011;4956;50.996;13.716;2022-12-18T17:02:40;29.25;;;13.38;;
9834;SDS011;4956;50.996;13.716;2022-12-18T17:06:03;29.45;;;12.55;;
9834;SDS011;4956;50.996;13.716;2022-12-18T17:09:24;27.23;;;12.50;;
9834;SDS011;4956;50.996;13.716;2022-12-18T17:12:45;32.78;;;14.25;;
9834;SDS011;4956;50.996;13.716;2022-12-18T17:16:06;32.97;;;14.13;;
9834;SDS011;4956;50.996;13.716;2022-12-18T17:19:27;29.83;;;13.60;;
9834;SDS011;4956;50.996;13.716;2022-12-18T17:22:48;29.48;;;13.57;;
9834;SDS011;4956;50.996;13.716;2022-12-18T17:26:08;30.83;;;13.57;;
9834;SDS011;4956;50.996;13.716;2022-12-18T17:29:30;26.58;;;12.95;;
9834;SDS011;4956;50.996;13.716;2022-12-18T17:32:50;27.65;;;12.13;;
9834;SDS011;4956;50.996;13.716;2022-12-18T17:36:11;30.75;;;14.35;;
9834;SDS011;4956;50.996;13.716;2022-12-18T17:39:31;35.20;;;15.40;;
9834;SDS011;4956;50.996;13.716;2022-12-18T17:42:52;35.45;;;14.98;;
9834;SDS011;4956;50.996;13.716;2022-12-18T17:46:13;34.75;;;15.55;;
9834;SDS011;4956;50.996;13.716;2022-12-18T17:49:34;29.83;;;14.23;;
9834;SDS011;4956;50.996;13.716;2022-12-18T17:52:55;31.80;;;13.63;;
9834;SDS011;4956;50.996;13.716;2022-12-18T17:56:17;28.02;;;12.70;;
9834;SDS011;4956;50.996;13.716;2022-12-18T17:59:38;31.35;;;13.38;;
9834;SDS011;4956;50.996;13.716;2022-12-18T18:02:58;26.38;;;12.50;;
9834;SDS011;4956;50.996;13.716;2022-12-18T18:06:19;29.88;;;14.10;;
9834;SDS011;4956;50.996;13.716;2022-12-18T18:09:39;30.55;;;14.45;;
9834;SDS011;4956;50.996;13.716;2022-12-18T18:13:00;29.42;;;13.48;;
9834;SDS011;4956;50.996;13.716;2022-12-18T18:16:43;28.80;;;12.70;;
9834;SDS011;4956;50.996;13.716;2022-12-18T18:20:05;30.75;;;14.00;;
9834;SDS011;4956;50.996;13.716;2022-12-18T18:23:25;29.60;;;13.48;;
9834;SDS011;4956;50.996;13.716;2022-12-18T18:26:47;33.55;;;13.65;;
9834;SDS011;4956;50.996;13.716;2022-12-18T18:30:08;31.70;;;13.45;;
9834;SDS011;4956;50.996;13.716;2022-12-18T18:33:30;32.80;;;13.40;;
9834;SDS011;4956;50.996;13.716;2022-12-18T18:36:50;28.25;;;12.93;;
9834;SDS011;4956;50.996;13.716;2022-12-18T18:40:11;28.92;;;13.23;;
9834;SDS011;4956;50.996;13.716;2022-12-18T18:43:31;31.92;;;13.30;;
9834;SDS011;4956;50.996;13.716;2022-12-18T18:46:55;28.80;;;13.02;;
9834;SDS011;4956;50.996;13.716;2022-12-18T18:50:17;27.40;;;12.25;;
9834;SDS011;4956;50.996;13.716;2022-12-18T18:53:39;31.95;;;13.80;;
9834;SDS011;4956;50.996;13.716;2022-12-18T18:57:03;27.77;;;12.60;;
9834;SDS011;4956;50.996;13.716;2022-12-18T19:00:24;26.38;;;12.55;;
9834;SDS011;4956;50.996;13.716;2022-12-18T19:03:44;29.23;;;12.88;;
9834;SDS011;4956;50.996;13.716;2022-12-18T19:07:06;27.45;;;12.43;;
9834;SDS011;4956;50.996;13.716;2022-12-18T19:10:27;28.88;;;12.57;;
9834;SDS011;4956;50.996;13.716;2022-12-18T19:13:47;27.63;;;12.68;;
9834;SDS011;4956;50.996;13.716;2022-12-18T19:17:07;25.00;;;11.70;;
9834;SDS011;4956;50.996;13.716;2022-12-18T19:20:28;28.25;;;12.35;;
9834;SDS011;4956;50.996;13.716;2022-12-18T19:23:48;27.75;;;12.95;;
9834;SDS011;4956;50.996;13.716;2022-12-18T19:27:09;23.80;;;11.13;;
9834;SDS011;4956;50.996;13.716;2022-12-18T19:30:30;43.63;;;21.08;;
9834;SDS011;4956;50.996;13.716;2022-12-18T19:33:50;27.33;;;13.05;;
9834;SDS011;4956;50.996;13.716;2022-12-18T19:37:10;23.45;;;11.13;;
9834;SDS011;4956;50.996;13.716;2022-12-18T19:40:31;22.48;;;10.48;;
9834;SDS011;4956;50.996;13.716;2022-12-18T19:43:52;30.30;;;11.93;;
9834;SDS011;4956;50.996;13.716;2022-12-18T19:47:12;25.77;;;11.50;;
9834;SDS011;4956;50.996;13.716;2022-12-18T19:50:33;23.55;;;11.07;;
9834;SDS011;4956;50.996;13.716;2022-12-18T19:53:55;28.10;;;11.07;;
9834;SDS011;4956;50.996;13.716;2022-12-18T19:57:16;29.20;;;12.63;;
9834;SDS011;4956;50.996;13.716;2022-12-18T20:00:36;26.35;;;11.05;;
9834;SDS011;4956;50.996;13.716;2022-12-18T20:03:57;28.30;;;11.13;;
9834;SDS011;4956;50.996;13.716;2022-12-18T20:07:17;23.73;;;11.18;;
9834;SDS011;4956;50.996;13.716;2022-12-18T20:10:38;23.55;;;10.30;;
9834;SDS011;4956;50.996;13.716;2022-12-18T20:13:58;24.13;;;10.95;;
9834;SDS011;4956;50.996;13.716;2022-12-18T20:17:20;24.90;;;10.80;;
9834;SDS011;4956;50.996;13.716;2022-12-18T20:20:40;24.77;;;10.65;;
9834;SDS011;4956;50.996;13.716;2022-12-18T20:24:00;23.70;;;11.07;;
9834;SDS011;4956;50.996;13.716;2022-12-18T20:27:21;26.35;;;10.80;;
9834;SDS011;4956;50.996;13.716;2022-12-18T20:30:41;26.35;;;11.25;;
9834;SDS011;4956;50.996;13.716;2022-12-18T20:34:01;24.92;;;10.98;;
9834;SDS011;4956;50.996;13.716;2022-12-18T20:37:22;21.92;;;9.90;;
9834;SDS011;4956;50.996;13.716;2022-12-18T20:40:45;21.98;;;10.05;;
9834;SDS011;4956;50.996;13.716;2022-12-18T20:44:06;21.38;;;10.55;;
9834;SDS011;4956;50.996;13.716;2022-12-18T20:47:27;24.05;;;10.57;;
9834;SDS011;4956;50.996;13.716;2022-12-18T20:50:56;25.27;;;10.85;;
9834;SDS011;4956;50.996;13.716;2022-12-18T20:54:17;23.27;;;10.60;;
9834;SDS011;4956;50.996;13.716;2022-12-18T20:57:37;24.77;;;10.68;;
9834;SDS011;4956;50.996;13.716;2022-12-18T21:01:08;25.48;;;11.10;;
9834;SDS011;4956;50.996;13.716;2022-12-18T21:04:30;20.63;;;10.07;;
9834;SDS011;4956;50.996;13.716;2022-12-18T21:07:50;26.13;;;10.63;;
9834;SDS011;4956;50.996;13.716;2022-12-18T21:11:11;21.15;;;9.95;;
9834;SDS011;4956;50.996;13.716;2022-12-18T21:14:54;17.20;;;7.60;;
9834;SDS011;4956;50.996;13.716;2022-12-18T21:18:14;20.35;;;8.15;;
9834;SDS011;4956;50.996;13.716;2022-12-18T21:21:34;17.98;;;7.95;;
9834;SDS011;4956;50.996;13.716;2022-12-18T21:24:55;17.95;;;8.55;;
9834;SDS011;4956;50.996;13.716;2022-12-18T21:28:16;17.50;;;7.95;;
9834;SDS011;4956;50.996;13.716;2022-12-18T21:31:37;17.67;;;9.00;;